createdAt,value
2023-03-30T00:01:11.945Z,2.70
2023-03-30T00:03:43.133Z,2.28
2023-03-30T00:06:10.566Z,1.80
2023-03-30T00:08:38.024Z,1.70
2023-03-30T00:11:06.243Z,2.15
2023-03-30T00:13:34.598Z,1.70
2023-03-30T00:16:02.007Z,1.95
2023-03-30T00:18:29.937Z,1.88
2023-03-30T00:20:58.442Z,1.27
2023-03-30T00:23:25.723Z,1.83
2023-03-30T00:25:54.996Z,1.77
2023-03-30T00:28:26.165Z,2.03
2023-03-30T00:30:53.790Z,1.30
2023-03-30T00:33:30.290Z,1.65
2023-03-30T00:36:00.757Z,1.70
2023-03-30T00:38:30.140Z,1.83
2023-03-30T00:40:59.827Z,1.40
2023-03-30T00:43:27.333Z,1.50
2023-03-30T00:45:56.845Z,1.88
2023-03-30T00:48:31.031Z,2.45
2023-03-30T00:51:09.449Z,1.88
2023-03-30T00:53:42.041Z,1.83
2023-03-30T00:56:12.832Z,1.52
2023-03-30T00:58:41.175Z,1.73
2023-03-30T01:01:14.990Z,1.70
2023-03-30T01:03:48.102Z,1.77
2023-03-30T01:06:24.246Z,1.98
2023-03-30T01:08:57.992Z,2.15
2023-03-30T01:11:29.625Z,1.70
2023-03-30T01:14:16.200Z,1.92
2023-03-30T01:16:56.750Z,2.00
2023-03-30T01:20:08.948Z,1.90
2023-03-30T01:23:11.493Z,1.73
2023-03-30T01:25:47.086Z,2.45
2023-03-30T01:28:22.724Z,2.25
2023-03-30T01:31:18.321Z,1.80
2023-03-30T01:34:03.750Z,1.98
2023-03-30T01:36:36.198Z,1.52
2023-03-30T01:39:29.102Z,1.90
2023-03-30T01:42:17.372Z,2.55
2023-03-30T01:45:04.674Z,2.60
2023-03-30T01:48:00.614Z,1.77
2023-03-30T01:50:34.855Z,2.25
2023-03-30T01:53:21.351Z,1.73
2023-03-30T01:55:57.365Z,2.20
2023-03-30T01:58:51.213Z,2.00
2023-03-30T02:01:21.894Z,2.05
2023-03-30T02:03:54.646Z,1.88
2023-03-30T02:06:39.759Z,2.22
2023-03-30T02:09:15.519Z,2.25
2023-03-30T02:11:49.344Z,1.90
2023-03-30T02:14:19.280Z,2.30
2023-03-30T02:16:49.253Z,2.20
2023-03-30T02:19:18.221Z,2.17
2023-03-30T02:21:45.231Z,2.17
2023-03-30T02:24:18.748Z,1.90
2023-03-30T02:26:49.373Z,1.80
2023-03-30T02:29:19.287Z,2.17
2023-03-30T02:31:48.288Z,2.00
2023-03-30T02:34:30.330Z,2.00
2023-03-30T02:37:15.868Z,2.08
2023-03-30T02:40:19.556Z,2.47
2023-03-30T02:43:13.616Z,1.98
2023-03-30T02:45:53.380Z,2.60
2023-03-30T02:50:53.376Z,2.00
2023-03-30T02:53:36.005Z,1.85
2023-03-30T02:56:14.701Z,2.70
2023-03-30T02:58:59.649Z,2.10
2023-03-30T03:01:37.983Z,2.50
2023-03-30T03:04:07.144Z,2.22
2023-03-30T03:06:33.880Z,2.15
2023-03-30T03:09:04.130Z,2.50
2023-03-30T03:11:33.186Z,2.88
2023-03-30T03:14:00.119Z,2.20
2023-03-30T03:16:26.942Z,2.60
2023-03-30T03:18:56.128Z,2.33
2023-03-30T03:21:22.797Z,2.53
2023-03-30T03:23:49.544Z,2.42
2023-03-30T03:26:16.333Z,2.30
2023-03-30T03:28:43.032Z,2.22
2023-03-30T03:31:09.838Z,2.17
2023-03-30T03:33:39.093Z,2.53
2023-03-30T03:36:08.775Z,1.92
2023-03-30T03:38:36.221Z,2.17
2023-03-30T03:41:03.621Z,1.85
2023-03-30T03:43:33.328Z,2.42
2023-03-30T03:46:00.219Z,2.03
2023-03-30T03:48:27.066Z,2.30
2023-03-30T03:50:56.981Z,2.00
2023-03-30T03:53:29.836Z,1.80
2023-03-30T03:55:56.519Z,2.45
2023-03-30T03:58:24.082Z,2.17
2023-03-30T04:00:51.052Z,2.13
2023-03-30T04:03:18.095Z,2.15
2023-03-30T04:05:44.838Z,2.65
2023-03-30T04:08:11.840Z,2.30
2023-03-30T04:10:39.884Z,2.10
2023-03-30T04:13:09.192Z,2.15
2023-03-30T04:15:36.214Z,2.58
2023-03-30T04:18:05.740Z,2.13
2023-03-30T04:20:34.685Z,1.70
2023-03-30T04:23:01.825Z,2.30
2023-03-30T04:25:31.384Z,1.98
2023-03-30T04:28:00.348Z,2.22
2023-03-30T04:30:30.448Z,2.13
2023-03-30T04:33:04.449Z,2.88
2023-03-30T04:35:32.977Z,2.60
2023-03-30T04:38:00.553Z,2.42
2023-03-30T04:40:27.822Z,2.47
2023-03-30T04:42:54.905Z,2.40
2023-03-30T04:45:21.917Z,2.92
2023-03-30T04:47:48.847Z,2.15
2023-03-30T04:50:18.004Z,2.75
2023-03-30T04:52:44.659Z,2.70
2023-03-30T04:55:11.698Z,2.38
2023-03-30T04:57:40.830Z,2.45
2023-03-30T05:00:09.285Z,2.90
2023-03-30T05:02:36.380Z,2.20
2023-03-30T05:05:03.326Z,2.67
2023-03-30T05:07:30.185Z,2.58
2023-03-30T05:09:56.876Z,2.50
2023-03-30T05:12:25.902Z,2.33
2023-03-30T05:14:52.697Z,2.55
2023-03-30T05:17:19.399Z,2.78
2023-03-30T05:19:46.665Z,2.72
2023-03-30T05:22:14.428Z,2.78
2023-03-30T05:24:41.288Z,2.42
2023-03-30T05:27:07.935Z,2.85
2023-03-30T05:29:37.057Z,2.72
2023-03-30T05:32:03.836Z,3.22
2023-03-30T05:34:32.732Z,3.03
2023-03-30T05:37:01.815Z,2.43
2023-03-30T05:39:28.623Z,2.17
2023-03-30T05:41:56.465Z,2.45
2023-03-30T05:44:23.342Z,3.13
2023-03-30T05:46:52.766Z,3.08
2023-03-30T05:49:21.955Z,2.50
2023-03-30T05:51:51.478Z,2.63
2023-03-30T05:54:20.531Z,2.92
2023-03-30T05:56:47.283Z,2.50
2023-03-30T05:59:14.283Z,2.60
2023-03-30T06:01:41.037Z,2.22
2023-03-30T06:04:08.581Z,2.05
2023-03-30T06:06:35.393Z,2.42
2023-03-30T06:09:02.919Z,2.85
2023-03-30T06:11:30.150Z,2.45
2023-03-30T06:13:56.796Z,2.50
2023-03-30T06:16:23.936Z,2.55
2023-03-30T06:18:50.815Z,2.33
2023-03-30T06:21:20.699Z,2.63
2023-03-30T06:23:47.410Z,3.20
2023-03-30T06:26:14.662Z,2.00
2023-03-30T06:28:43.577Z,2.80
2023-03-30T06:31:12.826Z,2.80
2023-03-30T06:33:41.690Z,2.28
2023-03-30T06:36:13.652Z,2.38
2023-03-30T06:38:46.474Z,2.60
2023-03-30T06:41:13.466Z,2.10
2023-03-30T06:43:40.655Z,2.40
2023-03-30T06:46:08.390Z,2.03
2023-03-30T06:48:37.911Z,2.08
2023-03-30T06:51:07.170Z,2.63
2023-03-30T06:53:33.962Z,2.20
2023-03-30T06:56:00.701Z,2.60
2023-03-30T06:58:30.271Z,2.20
2023-03-30T07:00:57.223Z,2.15
2023-03-30T07:03:24.099Z,2.42
2023-03-30T07:05:52.461Z,2.40
2023-03-30T07:08:20.094Z,2.22
2023-03-30T07:10:48.256Z,2.80
2023-03-30T07:13:16.900Z,2.50
2023-03-30T07:15:46.781Z,2.67
2023-03-30T07:18:14.307Z,2.55
2023-03-30T07:20:43.345Z,1.90
2023-03-30T07:23:11.373Z,2.03
2023-03-30T07:25:42.058Z,2.28
2023-03-30T07:28:08.784Z,2.95
2023-03-30T07:30:36.176Z,2.33
2023-03-30T07:33:03.628Z,2.63
2023-03-30T07:35:30.850Z,2.00
2023-03-30T07:38:03.328Z,2.30
2023-03-30T07:40:30.991Z,2.00
2023-03-30T07:43:00.404Z,2.20
2023-03-30T07:45:27.160Z,2.33
2023-03-30T07:47:53.933Z,2.40
2023-03-30T07:50:21.478Z,1.88
2023-03-30T07:52:50.494Z,2.40
2023-03-30T07:55:19.490Z,2.88
2023-03-30T07:57:46.334Z,2.17
2023-03-30T08:00:14.643Z,1.70
2023-03-30T08:02:42.369Z,1.88
2023-03-30T08:05:09.642Z,1.85
2023-03-30T08:07:38.904Z,1.67
2023-03-30T08:10:06.092Z,1.42
2023-03-30T08:12:32.785Z,1.77
2023-03-30T08:15:00.715Z,1.98
2023-03-30T08:17:27.866Z,1.77
2023-03-30T08:19:56.209Z,1.75
2023-03-30T08:22:23.818Z,1.52
2023-03-30T08:24:52.805Z,1.63
2023-03-30T08:27:19.536Z,1.60
2023-03-30T08:29:50.742Z,2.38
2023-03-30T08:32:19.889Z,1.70
2023-03-30T08:34:47.230Z,1.50
2023-03-30T08:37:14.096Z,2.03
2023-03-30T08:39:40.835Z,1.70
2023-03-30T08:42:34.088Z,1.60
2023-03-30T08:45:05.388Z,1.90
2023-03-30T08:47:36.578Z,1.25
2023-03-30T08:50:21.301Z,2.08
2023-03-30T08:52:50.428Z,1.40
2023-03-30T08:55:36.372Z,1.35
2023-03-30T08:58:18.610Z,1.10
2023-03-30T09:00:52.626Z,1.50
2023-03-30T09:03:32.023Z,1.23
2023-03-30T09:06:12.092Z,1.13
2023-03-30T09:08:40.600Z,1.52
2023-03-30T09:11:15.380Z,1.50
2023-03-30T09:13:45.589Z,1.65
2023-03-30T09:16:21.524Z,1.05
2023-03-30T09:18:54.168Z,1.30
2023-03-30T09:21:23.048Z,1.23
2023-03-30T09:23:56.210Z,1.52
2023-03-30T09:27:16.357Z,1.40
2023-03-30T09:29:48.076Z,1.10
2023-03-30T09:32:30.811Z,1.50
2023-03-30T09:35:26.618Z,1.38
2023-03-30T09:37:55.653Z,1.63
2023-03-30T09:40:36.431Z,1.50
2023-03-30T09:43:36.057Z,1.83
2023-03-30T09:48:41.455Z,1.55
2023-03-30T09:51:31.383Z,1.90
2023-03-30T09:54:03.123Z,1.63
2023-03-30T09:56:45.116Z,1.60
2023-03-30T09:59:28.334Z,2.15
2023-03-30T10:02:16.350Z,1.65
2023-03-30T10:04:52.564Z,1.92
2023-03-30T10:07:37.750Z,1.27
2023-03-30T10:10:15.968Z,0.82
2023-03-30T10:12:47.923Z,1.73
2023-03-30T10:15:16.758Z,0.80
2023-03-30T10:17:48.069Z,1.30
2023-03-30T10:20:30.158Z,1.02
2023-03-30T10:23:16.810Z,0.70
2023-03-30T10:25:44.214Z,0.70
2023-03-30T10:28:29.703Z,0.90
2023-03-30T10:30:59.681Z,0.50
2023-03-30T10:33:28.261Z,0.45
2023-03-30T10:35:57.605Z,0.70
2023-03-30T10:38:24.799Z,0.40
2023-03-30T10:41:02.829Z,0.50
2023-03-30T10:43:38.257Z,0.75
2023-03-30T10:46:24.790Z,0.68
2023-03-30T10:49:00.906Z,0.50
2023-03-30T10:51:44.069Z,0.60
2023-03-30T10:54:17.499Z,0.70
2023-03-30T10:56:44.222Z,0.70
2023-03-30T10:59:54.198Z,0.60
2023-03-30T11:02:36.262Z,0.82
2023-03-30T11:05:12.487Z,0.55
2023-03-30T11:08:01.874Z,0.60
2023-03-30T11:10:42.216Z,0.90
2023-03-30T11:13:30.397Z,0.38
2023-03-30T11:16:04.826Z,0.60
2023-03-30T11:18:42.821Z,0.57
2023-03-30T11:21:27.648Z,0.40
2023-03-30T11:23:56.570Z,0.55
2023-03-30T11:26:38.069Z,0.33
2023-03-30T11:29:26.998Z,0.50
2023-03-30T11:32:18.631Z,0.53
2023-03-30T11:35:04.309Z,0.50
2023-03-30T11:37:58.815Z,0.88
2023-03-30T11:40:38.880Z,0.80
2023-03-30T11:43:05.671Z,0.52
2023-03-30T11:45:42.108Z,0.73
2023-03-30T11:48:48.817Z,0.75
2023-03-30T11:51:43.343Z,0.50
2023-03-30T11:54:28.973Z,0.88
2023-03-30T11:57:11.168Z,0.75
2023-03-30T11:59:50.441Z,0.52
2023-03-30T12:02:37.541Z,0.60
2023-03-30T12:05:17.054Z,0.45
2023-03-30T12:07:50.748Z,0.73
2023-03-30T12:10:41.375Z,0.38
2023-03-30T12:13:16.451Z,0.50
2023-03-30T12:15:56.809Z,0.50
2023-03-30T12:18:38.391Z,0.63
2023-03-30T12:21:24.274Z,0.50
2023-03-30T12:24:08.255Z,0.70
2023-03-30T12:26:37.861Z,0.55
2023-03-30T12:29:47.992Z,0.85
2023-03-30T12:31:59.456Z,1.17
2023-03-30T12:34:28.587Z,1.08
2023-03-30T12:37:04.936Z,1.25
2023-03-30T12:39:44.909Z,1.90
2023-03-30T12:42:34.259Z,1.00
2023-03-30T12:45:21.237Z,0.63
2023-03-30T12:47:50.909Z,1.00
2023-03-30T12:50:37.132Z,1.58
2023-03-30T12:53:32.317Z,1.10
2023-03-30T12:56:28.998Z,0.70
2023-03-30T12:59:56.048Z,0.82
2023-03-30T13:02:39.460Z,0.82
2023-03-30T13:05:25.010Z,0.80
2023-03-30T13:07:54.618Z,0.90
2023-03-30T13:10:30.777Z,1.08
2023-03-30T13:13:00.105Z,0.85
2023-03-30T13:15:47.822Z,1.60
2023-03-30T13:18:14.447Z,0.80
2023-03-30T13:20:46.996Z,1.00
2023-03-30T13:23:13.632Z,1.25
2023-03-30T13:25:44.528Z,1.05
2023-03-30T13:28:45.710Z,1.40
2023-03-30T13:31:38.848Z,1.02
2023-03-30T13:34:29.143Z,1.35
2023-03-30T13:37:21.141Z,1.17
2023-03-30T13:40:10.937Z,1.42
2023-03-30T13:43:08.618Z,1.33
2023-03-30T13:45:40.313Z,1.80
2023-03-30T13:48:23.438Z,1.42
2023-03-30T13:50:57.076Z,1.15
2023-03-30T13:53:28.315Z,1.25
2023-03-30T13:55:55.558Z,1.20
2023-03-30T13:58:29.791Z,1.55
2023-03-30T14:00:59.346Z,1.40
2023-03-30T14:03:44.818Z,1.30
2023-03-30T14:06:14.547Z,1.30
2023-03-30T14:11:21.959Z,1.58
2023-03-30T14:13:54.918Z,1.33
2023-03-30T14:16:26.780Z,1.45
2023-03-30T14:19:08.176Z,1.02
2023-03-30T14:21:37.600Z,1.50
2023-03-30T14:24:05.215Z,1.27
2023-03-30T14:26:39.161Z,1.17
2023-03-30T14:29:21.018Z,1.17
2023-03-30T14:32:07.843Z,1.08
2023-03-30T14:34:38.290Z,1.15
2023-03-30T14:37:07.762Z,1.88
2023-03-30T14:42:27.173Z,1.17
2023-03-30T14:44:56.754Z,1.23
2023-03-30T14:49:53.175Z,1.40
2023-03-30T14:52:27.487Z,2.22
2023-03-30T14:55:06.704Z,2.03
2023-03-30T14:57:43.647Z,1.38
2023-03-30T15:00:20.708Z,1.38
2023-03-30T15:02:53.029Z,1.65
2023-03-30T15:05:22.552Z,1.80
2023-03-30T15:07:50.767Z,2.05
2023-03-30T15:10:35.849Z,1.95
2023-03-30T15:13:03.635Z,1.70
2023-03-30T15:15:32.699Z,1.55
2023-03-30T15:18:04.058Z,1.27
2023-03-30T15:20:32.450Z,1.60
2023-03-30T15:23:03.289Z,1.42
2023-03-30T15:25:33.889Z,1.83
2023-03-30T15:28:07.576Z,1.20
2023-03-30T15:30:41.190Z,1.17
2023-03-30T15:33:23.722Z,1.10
2023-03-30T15:35:52.856Z,1.00
2023-03-30T15:38:28.869Z,1.25
2023-03-30T15:40:56.376Z,1.00
2023-03-30T15:43:29.389Z,1.17
2023-03-30T15:45:57.372Z,1.27
2023-03-30T15:48:36.657Z,0.80
2023-03-30T15:51:12.094Z,0.65
2023-03-30T15:53:49.688Z,0.88
2023-03-30T15:56:22.627Z,0.98
2023-03-30T15:58:53.574Z,1.40
2023-03-30T16:01:20.553Z,1.10
2023-03-30T16:03:53.065Z,1.20
2023-03-30T16:06:23.586Z,0.80
2023-03-30T16:08:50.300Z,1.13
2023-03-30T16:11:20.636Z,0.93
2023-03-30T16:13:48.855Z,1.33
2023-03-30T16:16:21.338Z,0.65
2023-03-30T16:18:48.174Z,1.10
2023-03-30T16:21:18.833Z,0.95
2023-03-30T16:23:45.654Z,1.60
2023-03-30T16:26:12.442Z,1.40
2023-03-30T16:28:42.118Z,1.40
2023-03-30T16:31:18.785Z,1.83
2023-03-30T16:33:45.624Z,1.45
2023-03-30T16:36:16.233Z,1.33
2023-03-30T16:38:43.307Z,1.02
2023-03-30T16:41:22.127Z,1.90
2023-03-30T16:43:51.595Z,1.73
2023-03-30T16:46:20.212Z,1.65
2023-03-30T16:48:47.148Z,1.75
2023-03-30T16:51:17.142Z,1.40
2023-03-30T16:53:46.356Z,1.63
2023-03-30T16:56:17.515Z,1.70
2023-03-30T16:58:46.914Z,1.20
2023-03-30T17:01:18.384Z,1.63
2023-03-30T17:03:50.398Z,1.45
2023-03-30T17:06:17.267Z,1.58
2023-03-30T17:08:44.821Z,0.98
2023-03-30T17:11:13.377Z,1.65
2023-03-30T17:13:41.086Z,1.10
2023-03-30T17:16:12.801Z,1.20
2023-03-30T17:18:42.201Z,1.15
2023-03-30T17:21:16.401Z,1.20
2023-03-30T17:23:44.837Z,1.20
2023-03-30T17:26:14.466Z,1.05
2023-03-30T17:28:45.293Z,1.67
2023-03-30T17:31:22.810Z,1.00
2023-03-30T17:33:49.805Z,0.90
2023-03-30T17:36:23.722Z,1.00
2023-03-30T17:38:51.345Z,1.20
2023-03-30T17:41:19.708Z,1.13
2023-03-30T17:43:48.145Z,1.10
2023-03-30T17:46:17.939Z,1.55
2023-03-30T17:48:44.900Z,1.23
2023-03-30T17:51:11.670Z,1.42
2023-03-30T17:53:38.464Z,1.33
2023-03-30T17:56:06.245Z,1.13
2023-03-30T17:58:36.790Z,0.88
2023-03-30T18:01:08.585Z,1.80
2023-03-30T18:03:38.484Z,0.70
2023-03-30T18:06:05.978Z,0.90
2023-03-30T18:08:32.794Z,0.75
2023-03-30T18:11:03.315Z,0.82
2023-03-30T18:13:30.768Z,1.75
2023-03-30T18:15:59.853Z,0.70
2023-03-30T18:18:31.569Z,0.90
2023-03-30T18:21:02.581Z,0.55
2023-03-30T18:23:31.485Z,0.57
2023-03-30T18:26:01.551Z,1.13
2023-03-30T18:28:31.536Z,0.70
2023-03-30T18:33:28.702Z,0.70
2023-03-30T18:36:04.995Z,1.08
2023-03-30T18:38:33.198Z,0.90
2023-03-30T18:41:01.302Z,1.05
2023-03-30T18:43:28.213Z,1.08
2023-03-30T18:46:01.505Z,0.75
2023-03-30T18:48:29.042Z,0.95
2023-03-30T18:50:58.903Z,0.85
2023-03-30T18:55:58.603Z,1.23
2023-03-30T18:58:28.061Z,1.10
2023-03-30T19:00:59.899Z,1.17
2023-03-30T19:03:30.086Z,1.20
2023-03-30T19:05:59.382Z,1.20
2023-03-30T19:08:27.169Z,1.30
2023-03-30T19:10:56.791Z,0.80
2023-03-30T19:13:24.543Z,1.00
2023-03-30T19:15:52.519Z,0.80
2023-03-30T19:18:21.976Z,1.08
2023-03-30T19:20:51.639Z,0.93
2023-03-30T19:23:21.914Z,0.90
2023-03-30T19:25:48.968Z,1.35
2023-03-30T19:28:16.290Z,1.10
2023-03-30T19:30:43.697Z,1.20
2023-03-30T19:33:15.220Z,1.25
2023-03-30T19:35:48.004Z,1.15
2023-03-30T19:38:17.824Z,1.00
2023-03-30T19:43:13.766Z,1.45
2023-03-30T19:45:49.356Z,1.33
2023-03-30T19:48:16.130Z,1.17
2023-03-30T19:50:42.954Z,1.30
2023-03-30T19:53:09.821Z,1.25
2023-03-30T19:55:37.084Z,1.23
2023-03-30T19:58:03.928Z,0.80
2023-03-30T20:00:32.617Z,1.02
2023-03-30T20:02:59.378Z,1.15
2023-03-30T20:05:28.795Z,1.48
2023-03-30T20:07:57.624Z,0.90
2023-03-30T20:10:26.034Z,1.08
2023-03-30T20:12:53.332Z,1.20
2023-03-30T20:15:21.715Z,1.35
2023-03-30T20:17:56.161Z,1.48
2023-03-30T20:20:26.528Z,1.10
2023-03-30T20:22:56.184Z,1.38
2023-03-30T20:25:23.863Z,1.50
2023-03-30T20:27:51.047Z,1.30
2023-03-30T20:30:18.769Z,1.60
2023-03-30T20:33:00.150Z,1.50
2023-03-30T20:35:34.434Z,1.20
2023-03-30T20:38:04.374Z,1.38
2023-03-30T20:40:32.165Z,1.38
2023-03-30T20:43:09.972Z,1.60
2023-03-30T20:45:46.177Z,1.00
2023-03-30T20:48:30.252Z,0.90
2023-03-30T20:50:57.437Z,1.60
2023-03-30T20:53:24.994Z,1.00
2023-03-30T20:55:51.907Z,1.17
2023-03-30T20:58:18.661Z,1.38
2023-03-30T21:00:47.370Z,1.80
2023-03-30T21:03:16.609Z,1.70
2023-03-30T21:05:43.375Z,1.30
2023-03-30T21:08:12.478Z,1.42
2023-03-30T21:10:43.134Z,1.30
2023-03-30T21:13:09.879Z,1.40
2023-03-30T21:15:36.651Z,0.90
2023-03-30T21:18:05.926Z,1.20
2023-03-30T21:20:32.618Z,1.52
2023-03-30T21:22:59.286Z,1.33
2023-03-30T21:25:26.030Z,1.63
2023-03-30T21:27:52.743Z,1.17
2023-03-30T21:30:21.594Z,1.52
2023-03-30T21:32:50.561Z,1.38
2023-03-30T21:35:19.703Z,1.07
2023-03-30T21:37:48.947Z,1.30
2023-03-30T21:40:15.798Z,1.55
2023-03-30T21:42:45.226Z,1.58
2023-03-30T21:45:12.643Z,0.95
2023-03-30T21:47:40.127Z,1.00
2023-03-30T21:50:09.993Z,1.38
2023-03-30T21:55:06.118Z,1.90
2023-03-30T21:57:32.779Z,1.10
2023-03-30T21:59:59.484Z,1.02
2023-03-30T22:02:26.313Z,1.20
2023-03-30T22:04:53.052Z,1.63
2023-03-30T22:07:19.715Z,1.20
2023-03-30T22:09:46.441Z,1.08
2023-03-30T22:12:13.126Z,1.38
2023-03-30T22:14:39.784Z,1.15
2023-03-30T22:17:07.793Z,0.65
2023-03-30T22:19:36.989Z,2.35
2023-03-30T22:22:06.144Z,1.30
2023-03-30T22:24:32.834Z,0.80
2023-03-30T22:26:59.533Z,1.33
2023-03-30T22:29:28.317Z,1.17
2023-03-30T22:31:56.099Z,1.75
2023-03-30T22:34:22.889Z,0.90
2023-03-30T22:36:49.558Z,0.95
2023-03-30T22:39:16.668Z,1.15
2023-03-30T22:41:46.135Z,1.08
2023-03-30T22:44:17.730Z,1.55
2023-03-30T22:46:44.401Z,0.82
2023-03-30T22:49:11.178Z,1.63
2023-03-30T22:51:38.187Z,1.00
2023-03-30T22:54:07.746Z,2.25
2023-03-30T22:56:34.450Z,0.82
2023-03-30T22:59:01.954Z,1.55
2023-03-30T23:01:32.045Z,0.82
2023-03-30T23:03:59.530Z,0.93
2023-03-30T23:06:26.424Z,0.80
2023-03-30T23:08:54.013Z,1.20
2023-03-30T23:11:23.710Z,0.88
2023-03-30T23:13:53.896Z,1.30
2023-03-30T23:16:20.925Z,1.10
2023-03-30T23:18:48.688Z,0.88
2023-03-30T23:21:15.364Z,1.45
2023-03-30T23:23:42.348Z,1.20
2023-03-30T23:26:14.027Z,0.95
2023-03-30T23:28:46.597Z,0.70
2023-03-30T23:31:16.499Z,1.00
2023-03-30T23:33:43.656Z,0.70
2023-03-30T23:36:16.778Z,1.33
2023-03-30T23:38:46.439Z,0.50
2023-03-30T23:41:15.077Z,0.80
2023-03-30T23:43:44.116Z,0.90
2023-03-30T23:46:13.623Z,0.83
2023-03-30T23:48:41.107Z,0.77
2023-03-30T23:51:11.082Z,1.08
2023-03-30T23:53:41.575Z,0.60
2023-03-30T23:56:12.779Z,0.93
2023-03-30T23:58:40.641Z,1.42
